Mississippi River (Missouri), Grafton (05587450)

StateMissouriLatestUnknown (90400 cfs)
RiverMississippi RiverRatingObservedEstimated
Updated2021-01-20 0:00 (13 minutes ago)Flood - The river is flooding. Obstacles can be treacherous or deadly. The river should be avoided at this stage for casual trips and definitely for the inexperienced. Trips should be attempted only with protective gear and equipment.Flood(none)(none)
Discharge90400 cfs (median: 73600 cfs)High - The river is high and potentially dangerous, especially for the young and / or inexperienced. Normal stream obstacles are sometimes difficult to navigate. Extended distances can be attempted, but canoe travel may not be advisable.High(none)(none)
Height15.95 feetGood - Conditions are ideal for a canoe or kayak. Boats typically will drag on fewer than one-quarter of riffles, if at all, and portages are unnecessary or rare. Normal float lengths can be attempted without a problem.Good(none)(none)
TrendRising (falling over 24 hours)Low - River is low but can still be floated. Some riffles are okay but most come with significant dragging and might need a portage. Float lengths should be reduced to accommodate low flow, dragging, and portages.Low(none)(none)
USGSExternal icon USGS Site (External icon Google Maps)Poor - River is too low to float comfortably. Most or all riffles will drag or must be portaged and some obstacles (such as slick shelf rock) cause undue problems. Avoid the river at this stage for casual paddling trips.Poor(none)(none)

Trending Data

Plot Image

Trips for Mississippi River (Missouri), Grafton (05587450)

DateStartEndDistanceConditionDischargeHeightFishingDetails

A total of 0 rows are displayed.

Condition Descriptions

Fishing Conditions

Fish Species

Notes

Classic Trip List

The classic River Trips application is still available for use. It is updated with the new system using a data retrofit. It is no longer maintained. The original River Trips application is no longer updated (as of 1 Dec 2016) but can be checked for errors or for the condition of the data before it was converted to the new system.

Gauge Data Table

ObservationHeightDischargeMaximum
Discharge
Minimum
Discharge
Mean
Discharge
P05P10P20P25P50
(Median)
P75P80P90P95
2021-01-20 00:00 15.95 90400 163000 (2005) 31200 (1990) 82700 33400 39000 47400 52400 73600 106000 114000 151000 160000
2021-01-19 23:30 15.93 183000 (2020) 36100 (2013) 83500 36500 40600 46400 52500 70700 111000 129000 142000 164000
2021-01-19 23:00 15.93 183000 (2020) 36100 (2013) 83500 36500 40600 46400 52500 70700 111000 129000 142000 164000
2021-01-19 22:30 15.91 90700 183000 (2020) 36100 (2013) 83500 36500 40600 46400 52500 70700 111000 129000 142000 164000
2021-01-19 22:00 15.93 90800 183000 (2020) 36100 (2013) 83500 36500 40600 46400 52500 70700 111000 129000 142000 164000
2021-01-19 21:30 15.94 183000 (2020) 36100 (2013) 83500 36500 40600 46400 52500 70700 111000 129000 142000 164000
2021-01-19 21:00 15.94 92100 183000 (2020) 36100 (2013) 83500 36500 40600 46400 52500 70700 111000 129000 142000 164000
2021-01-19 20:30 15.91 90100 183000 (2020) 36100 (2013) 83500 36500 40600 46400 52500 70700 111000 129000 142000 164000
2021-01-19 20:00 15.94 183000 (2020) 36100 (2013) 83500 36500 40600 46400 52500 70700 111000 129000 142000 164000
2021-01-19 19:30 15.92 90200 183000 (2020) 36100 (2013) 83500 36500 40600 46400 52500 70700 111000 129000 142000 164000
2021-01-19 19:00 15.93 90800 183000 (2020) 36100 (2013) 83500 36500 40600 46400 52500 70700 111000 129000 142000 164000
2021-01-19 18:30 15.92 90200 183000 (2020) 36100 (2013) 83500 36500 40600 46400 52500 70700 111000 129000 142000 164000
2021-01-19 18:00 15.91 89500 183000 (2020) 36100 (2013) 83500 36500 40600 46400 52500 70700 111000 129000 142000 164000
2021-01-19 17:30 15.93 183000 (2020) 36100 (2013) 83500 36500 40600 46400 52500 70700 111000 129000 142000 164000
2021-01-19 17:00 15.93 90200 183000 (2020) 36100 (2013) 83500 36500 40600 46400 52500 70700 111000 129000 142000 164000
2021-01-19 16:30 15.92 88400 183000 (2020) 36100 (2013) 83500 36500 40600 46400 52500 70700 111000 129000 142000 164000
2021-01-19 16:00 15.90 86900 183000 (2020) 36100 (2013) 83500 36500 40600 46400 52500 70700 111000 129000 142000 164000
2021-01-19 15:30 15.92 183000 (2020) 36100 (2013) 83500 36500 40600 46400 52500 70700 111000 129000 142000 164000
2021-01-19 15:00 15.90 88200 183000 (2020) 36100 (2013) 83500 36500 40600 46400 52500 70700 111000 129000 142000 164000
2021-01-19 14:30 15.90 183000 (2020) 36100 (2013) 83500 36500 40600 46400 52500 70700 111000 129000 142000 164000
2021-01-19 14:00 15.88 183000 (2020) 36100 (2013) 83500 36500 40600 46400 52500 70700 111000 129000 142000 164000
2021-01-19 13:30 15.90 88800 183000 (2020) 36100 (2013) 83500 36500 40600 46400 52500 70700 111000 129000 142000 164000
2021-01-19 13:00 15.89 89400 183000 (2020) 36100 (2013) 83500 36500 40600 46400 52500 70700 111000 129000 142000 164000
2021-01-19 12:30 15.89 183000 (2020) 36100 (2013) 83500 36500 40600 46400 52500 70700 111000 129000 142000 164000
2021-01-19 12:00 15.90 91200 183000 (2020) 36100 (2013) 83500 36500 40600 46400 52500 70700 111000 129000 142000 164000
2021-01-19 11:30 15.91 91900 183000 (2020) 36100 (2013) 83500 36500 40600 46400 52500 70700 111000 129000 142000 164000
2021-01-19 11:00 15.86 183000 (2020) 36100 (2013) 83500 36500 40600 46400 52500 70700 111000 129000 142000 164000
2021-01-19 10:30 15.92 183000 (2020) 36100 (2013) 83500 36500 40600 46400 52500 70700 111000 129000 142000 164000
2021-01-19 10:00 15.91 92500 183000 (2020) 36100 (2013) 83500 36500 40600 46400 52500 70700 111000 129000 142000 164000
2021-01-19 09:30 15.91 183000 (2020) 36100 (2013) 83500 36500 40600 46400 52500 70700 111000 129000 142000 164000
2021-01-19 09:00 15.90 91800 183000 (2020) 36100 (2013) 83500 36500 40600 46400 52500 70700 111000 129000 142000 164000
2021-01-19 08:30 15.92 93200 183000 (2020) 36100 (2013) 83500 36500 40600 46400 52500 70700 111000 129000 142000 164000
2021-01-19 08:00 15.92 93200 183000 (2020) 36100 (2013) 83500 36500 40600 46400 52500 70700 111000 129000 142000 164000
2021-01-19 07:30 15.90 91800 183000 (2020) 36100 (2013) 83500 36500 40600 46400 52500 70700 111000 129000 142000 164000
2021-01-19 07:00 15.91 93100 183000 (2020) 36100 (2013) 83500 36500 40600 46400 52500 70700 111000 129000 142000 164000
2021-01-19 06:30 15.91 92500 183000 (2020) 36100 (2013) 83500 36500 40600 46400 52500 70700 111000 129000 142000 164000
2021-01-19 06:00 15.91 91900 183000 (2020) 36100 (2013) 83500 36500 40600 46400 52500 70700 111000 129000 142000 164000
2021-01-19 05:30 15.92 183000 (2020) 36100 (2013) 83500 36500 40600 46400 52500 70700 111000 129000 142000 164000
2021-01-19 05:00 15.91 91900 183000 (2020) 36100 (2013) 83500 36500 40600 46400 52500 70700 111000 129000 142000 164000
2021-01-19 04:30 15.90 91200 183000 (2020) 36100 (2013) 83500 36500 40600 46400 52500 70700 111000 129000 142000 164000
2021-01-19 04:00 15.91 91900 183000 (2020) 36100 (2013) 83500 36500 40600 46400 52500 70700 111000 129000 142000 164000
2021-01-19 03:30 15.91 91900 183000 (2020) 36100 (2013) 83500 36500 40600 46400 52500 70700 111000 129000 142000 164000
2021-01-19 03:00 15.90 91200 183000 (2020) 36100 (2013) 83500 36500 40600 46400 52500 70700 111000 129000 142000 164000
2021-01-19 02:30 15.90 91800 183000 (2020) 36100 (2013) 83500 36500 40600 46400 52500 70700 111000 129000 142000 164000
2021-01-19 02:00 15.91 92500 183000 (2020) 36100 (2013) 83500 36500 40600 46400 52500 70700 111000 129000 142000 164000
2021-01-19 01:30 15.90 91800 183000 (2020) 36100 (2013) 83500 36500 40600 46400 52500 70700 111000 129000 142000 164000
2021-01-19 01:00 15.88 183000 (2020) 36100 (2013) 83500 36500 40600 46400 52500 70700 111000 129000 142000 164000
2021-01-19 00:30 15.91 93100 183000 (2020) 36100 (2013) 83500 36500 40600 46400 52500 70700 111000 129000 142000 164000
2021-01-19 00:00 15.90 93000 183000 (2020) 36100 (2013) 83500 36500 40600 46400 52500 70700 111000 129000 142000 164000

A total of 49 rows are displayed for years 1987 through 2020.